Sd416 Nippon — SKPF — position and weather

sailwx.info

Track history (hours):
 
Tides and Currents Weather Stations Pressure Air Temp Water Temp Dewpoint Dewpoint Depression Visibility Wind Speed Wind Dir Waves Ship Positions

Sd416 Nippon

Last reported at 2014-Oct-21 16:32 UTC. Time now 2014-Oct-22 03:06 UTC.
Position N 58°57' E 011°04'.

Length 17 m; draft 2.5 m.

Type: Fishing. MMSI: 266163000.

Date/timePositionNaut miles runAvg speedWind from/ knotsBaromVisibWave heightAir tempDewpointWater temp
2014-Oct-21 16:32N 58°57' E 011°04'11 5.4
2014-Oct-21 14:29N 58°51' E 010°46'3 1.0
2014-Oct-21 12:04N 58°50' E 010°42'2 1.1
2014-Oct-21 10:33N 58°51' E 010°40'1 1.2
2014-Oct-21 09:33N 58°52' E 010°39'1 1.1
2014-Oct-21 08:33N 58°53' E 010°41'2 1.6
2014-Oct-21 07:31N 58°51' E 010°43'2 1.6
2014-Oct-21 06:31N 58°50' E 010°43'2 1.6
2014-Oct-21 05:25N 58°48' E 010°43'1 1.5
2014-Oct-21 04:33N 58°47' E 010°44'2 0.6
2014-Oct-21 01:28N 58°48' E 010°43'1 1.2
2014-Oct-21 00:30N 58°49' E 010°43'1 1.1
2014-Oct-20 23:33N 58°50' E 010°44'1 1.3
2014-Oct-20 22:33N 58°50' E 010°47'1 1.2
2014-Oct-20 21:33N 58°52' E 010°48'1 1.3
2014-Oct-20 20:33N 58°53' E 010°49'1 0.9
2014-Oct-20 19:33N 58°54' E 010°49'0 0.5
2014-Oct-20 18:33N 58°53' E 010°49'3 2.9
2014-Oct-20 17:33N 58°54' E 010°54'7 6.9
2014-Oct-20 16:28N 58°56' E 011°08'  
2014-Oct-15 16:26N 58°50' E 010°49'0 0.2
2014-Oct-15 15:14N 58°50' E 010°49'1 1.9
2014-Oct-15 14:33N 58°49' E 010°50'1 0.1
2014-Oct-15 08:18N 58°49' E 010°49'3 1.0
2014-Oct-15 05:16N 58°52' E 010°50'2 2.4
2014-Oct-15 04:33N 58°53' E 010°52'4 0.3
2014-Oct-14 14:33N 58°49' E 010°49'2 1.9
2014-Oct-14 13:33N 58°48' E 010°48'2 0.5
2014-Oct-14 09:20N 58°50' E 010°49'2 2.0
2014-Oct-14 08:33N 58°48' E 010°48'4 1.3
2014-Oct-14 05:15N 58°52' E 010°50'1 1.6
2014-Oct-14 04:31N 58°53' E 010°52'2 0.2
2014-Oct-13 16:22N 58°51' E 010°50'1 1.1
2014-Oct-13 15:33N 58°52' E 010°49'3 1.6
2014-Oct-13 13:25N 58°49' E 010°51'4 1.1
2014-Oct-13 10:05N 58°52' E 010°48'1 1.4
2014-Oct-13 09:26N 58°51' E 010°48'2 1.8
2014-Oct-13 08:04N 58°49' E 010°45'3 1.3
2014-Oct-13 05:24N 58°52' E 010°50'1 1.6
2014-Oct-13 04:29N 58°53' E 010°51'  
Track history (hours):
 
Tides and Currents Weather Stations Pressure Air Temp Water Temp Dewpoint Dewpoint Depression Visibility Wind Speed Wind Dir Waves Ship Positions

Sd416 Nippon

Last reported at 2014-Oct-21 16:32 UTC. Time now 2014-Oct-22 03:06 UTC.
Position N 58°57' E 011°04'.

Length 17 m; draft 2.5 m.

Type: Fishing. MMSI: 266163000.

Date/timePositionNaut miles runAvg speedWind from/ knotsBaromVisibWave heightAir tempDewpointWater temp
2014-Oct-21 16:32N 58°57' E 011°04'11 5.4
2014-Oct-21 14:29N 58°51' E 010°46'3 1.0
2014-Oct-21 12:04N 58°50' E 010°42'2 1.1
2014-Oct-21 10:33N 58°51' E 010°40'1 1.2
2014-Oct-21 09:33N 58°52' E 010°39'1 1.1
2014-Oct-21 08:33N 58°53' E 010°41'2 1.6
2014-Oct-21 07:31N 58°51' E 010°43'2 1.6
2014-Oct-21 06:31N 58°50' E 010°43'2 1.6
2014-Oct-21 05:25N 58°48' E 010°43'1 1.5
2014-Oct-21 04:33N 58°47' E 010°44'2 0.6
2014-Oct-21 01:28N 58°48' E 010°43'1 1.2
2014-Oct-21 00:30N 58°49' E 010°43'1 1.1
2014-Oct-20 23:33N 58°50' E 010°44'1 1.3
2014-Oct-20 22:33N 58°50' E 010°47'1 1.2
2014-Oct-20 21:33N 58°52' E 010°48'1 1.3
2014-Oct-20 20:33N 58°53' E 010°49'1 0.9
2014-Oct-20 19:33N 58°54' E 010°49'0 0.5
2014-Oct-20 18:33N 58°53' E 010°49'3 2.9
2014-Oct-20 17:33N 58°54' E 010°54'7 6.9
2014-Oct-20 16:28N 58°56' E 011°08'  
2014-Oct-15 16:26N 58°50' E 010°49'0 0.2
2014-Oct-15 15:14N 58°50' E 010°49'1 1.9
2014-Oct-15 14:33N 58°49' E 010°50'1 0.1
2014-Oct-15 08:18N 58°49' E 010°49'3 1.0
2014-Oct-15 05:16N 58°52' E 010°50'2 2.4
2014-Oct-15 04:33N 58°53' E 010°52'4 0.3
2014-Oct-14 14:33N 58°49' E 010°49'2 1.9
2014-Oct-14 13:33N 58°48' E 010°48'2 0.5
2014-Oct-14 09:20N 58°50' E 010°49'2 2.0
2014-Oct-14 08:33N 58°48' E 010°48'4 1.3
2014-Oct-14 05:15N 58°52' E 010°50'1 1.6
2014-Oct-14 04:31N 58°53' E 010°52'2 0.2
2014-Oct-13 16:22N 58°51' E 010°50'1 1.1
2014-Oct-13 15:33N 58°52' E 010°49'3 1.6
2014-Oct-13 13:25N 58°49' E 010°51'4 1.1
2014-Oct-13 10:05N 58°52' E 010°48'1 1.4
2014-Oct-13 09:26N 58°51' E 010°48'2 1.8
2014-Oct-13 08:04N 58°49' E 010°45'3 1.3
2014-Oct-13 05:24N 58°52' E 010°50'1 1.6
2014-Oct-13 04:29N 58°53' E 010°51'  

Dump ship's entire track history